Cedar Springs, Texas
Current Conditions -  °F | °C
As of 11:15 AM on Thursday 27 Nov 2014 (Local Time) from KT35 Reporting Station
Clear Clear  
Wind Chill: 57°   Ceiling: Unl
Heat Index: 57°   Visibility: 10mi
Dew Point: 26°   Wind: 5mph
Humidity: 31%   Direction: 50°NE
Pressure: 30.53"   Gusts: NA
Location:  31.0981°N, 96.99°W
Report Text: KT35 271715Z AUTO 05004KT 10SM CLR 14/M03 A3053 RMK AO2 T01381032
Loading
Personal Weather Stations






























Interactive Weather Map New forecast layout! Learn more

10-Day Weather Forecast

Advertisements
Track Severe Weather on mobile